Time;durP1;ratioP1;P1;durP2;ratioP2;P2;SDS_P1;SDS_P2;PMS_P1;PMS_P2;Temp;Humidity;BMP_temperature;BMP_pressure;BME280_temperature;BME280_humidity;BME280_pressure;Samples;Min_cycle;Max_cycle;Signal;HPM_P1;HPM_P2
2022/07/31 00:01:30;;;;;;;9.90;6.53;;;;;;;;;;5018455;28;20317;-81
2022/07/31 00:03:55;;;;;;;8.93;6.20;;;;;;;;;;5019206;28;20259;-81
2022/07/31 00:06:20;;;;;;;8.97;5.60;;;;;;;;;;5019226;28;20371;-81
2022/07/31 00:08:48;;;;;;;8.52;6.05;;;;;;;;;;5018742;28;20732;-81
2022/07/31 00:11:13;;;;;;;10.40;6.13;;;;;;;;;;5019227;28;20448;-80
2022/07/31 00:13:38;;;;;;;8.23;6.30;;;;;;;;;;5001369;28;20069;-81
2022/07/31 00:16:04;;;;;;;9.68;6.10;;;;;;;;;;5019014;28;20259;-81
2022/07/31 00:18:29;;;;;;;9.55;6.35;;;;;;;;;;5018761;28;20038;-81
2022/07/31 00:20:54;;;;;;;6.90;5.97;;;;;;;;;;5018394;28;20372;-82
2022/07/31 00:23:19;;;;;;;6.87;5.80;;;;;;;;;;5019073;28;20342;-79
2022/07/31 00:25:45;;;;;;;11.07;6.30;;;;;;;;;;5018276;28;20306;-80
2022/07/31 00:28:10;;;;;;;9.90;6.63;;;;;;;;;;5018460;28;20287;-81
2022/07/31 00:30:35;;;;;;;7.93;6.70;;;;;;;;;;5018188;28;20022;-82
2022/07/31 00:33:00;;;;;;;10.60;7.22;;;;;;;;;;5017888;28;20737;-81
2022/07/31 00:35:25;;;;;;;11.13;6.80;;;;;;;;;;5018013;28;20026;-78
2022/07/31 00:37:51;;;;;;;9.50;6.70;;;;;;;;;;5017291;28;20312;-81
2022/07/31 00:40:16;;;;;;;9.32;7.20;;;;;;;;;;5018051;28;20412;-81
2022/07/31 00:42:42;;;;;;;13.30;7.40;;;;;;;;;;5017287;28;20448;-72
2022/07/31 00:45:09;;;;;;;9.48;6.45;;;;;;;;;;5014515;28;20072;-73
2022/07/31 00:47:34;;;;;;;9.57;6.57;;;;;;;;;;5014481;28;20399;-72
2022/07/31 00:49:59;;;;;;;9.75;6.82;;;;;;;;;;5014791;28;20025;-72
2022/07/31 00:52:25;;;;;;;9.60;6.93;;;;;;;;;;5014643;28;20018;-72
2022/07/31 00:54:50;;;;;;;10.23;7.20;;;;;;;;;;5014646;28;20269;-72
2022/07/31 00:57:15;;;;;;;9.93;7.77;;;;;;;;;;4996816;28;20342;-72
2022/07/31 00:59:41;;;;;;;12.85;7.65;;;;;;;;;;5015659;28;20302;-82
2022/07/31 01:03:19;;;;;;;;;;;;;;;;;;;;;
2022/07/31 01:24:28;;;;;;;11.75;8.63;;;;;;;;;;4755541;30;20082;-81
2022/07/31 01:35:32;;;;;;;12.73;7.95;;;;;;;;;;4732770;30;20096;-82
2022/07/31 01:50:14;;;;;;;13.38;9.02;;;;;;;;;;4856357;29;20030;-82
2022/07/31 02:00:51;;;;;;;12.13;8.75;;;;;;;;;;4863518;29;20041;-82
2022/07/31 02:04:21;;;;;;;12.70;8.20;;;;;;;;;;4907512;29;20477;-82
2022/07/31 02:17:49;;;;;;;;;;;;;;;;;;;;;
2022/07/31 02:24:44;;;;;;;9.57;7.82;;;;;;;;;;4947187;29;20047;-81
2022/07/31 02:28:03;;;;;;;11.02;8.48;;;;;;;;;;4962197;28;20037;-82
2022/07/31 02:41:22;;;;;;;13.50;8.35;;;;;;;;;;4982049;28;20093;-81
2022/07/31 02:44:15;;;;;;;10.30;7.85;;;;;;;;;;4983987;28;20035;-80
2022/07/31 02:46:47;;;;;;;10.88;8.38;;;;;;;;;;4978878;28;20039;-80
2022/07/31 02:49:21;;;;;;;11.90;7.95;;;;;;;;;;4979530;28;20038;-80
2022/07/31 02:51:50;;;;;;;9.27;7.72;;;;;;;;;;5029620;28;20040;-80
2022/07/31 02:54:17;;;;;;;11.75;7.97;;;;;;;;;;5060404;28;20051;-81
2022/07/31 02:56:45;;;;;;;10.93;7.95;;;;;;;;;;5060247;28;20036;-79
2022/07/31 02:59:10;;;;;;;12.27;8.50;;;;;;;;;;5057186;28;20032;-80
2022/07/31 03:01:37;;;;;;;10.15;7.90;;;;;;;;;;5058753;28;20021;-80
2022/07/31 03:04:29;;;;;;;;;;;;;;;;;;;;;
2022/07/31 03:06:55;;;;;;;11.35;8.02;;;;;;;;;;5044398;28;20116;-79
2022/07/31 03:09:35;;;;;;;11.70;8.65;;;;;;;;;;5063000;28;20471;-81
2022/07/31 03:12:31;;;;;;;;;;;;;;;;;;;;;
2022/07/31 03:15:19;;;;;;;10.00;7.95;;;;;;;;;;5061248;28;20093;-81
2022/07/31 03:18:23;;;;;;;11.02;7.85;;;;;;;;;;5046569;28;20021;-81
2022/07/31 03:21:24;;;;;;;;;;;;;;;;;;;;;
2022/07/31 03:27:24;;;;;;;11.07;8.02;;;;;;;;;;5014790;28;20124;-81
2022/07/31 03:40:46;;;;;;;10.02;7.40;;;;;;;;;;5052097;28;20033;-81
2022/07/31 03:50:56;;;;;;;9.73;7.05;;;;;;;;;;4960554;29;19941;-81
2022/07/31 03:54:12;;;;;;;14.50;7.78;;;;;;;;;;4979449;28;20038;-81
2022/07/31 03:57:01;;;;;;;11.10;7.68;;;;;;;;;;5041532;28;20033;-81
2022/07/31 03:59:57;;;;;;;9.27;7.55;;;;;;;;;;5073833;28;20029;-81
2022/07/31 04:02:59;;;;;;;9.88;7.60;;;;;;;;;;5070180;28;20096;-82
2022/07/31 04:05:33;;;;;;;10.73;7.25;;;;;;;;;;5071922;28;20040;-79
2022/07/31 04:08:08;;;;;;;8.95;7.57;;;;;;;;;;5074570;28;20454;-80
2022/07/31 04:10:41;;;;;;;9.35;8.15;;;;;;;;;;5072911;28;20045;-79
2022/07/31 04:13:35;;;;;;;9.82;7.78;;;;;;;;;;5072596;28;20033;-79
2022/07/31 05:39:53;;;;;;;8.48;5.85;;;;;;;;;;5089322;28;20069;-79
2022/07/31 05:43:11;;;;;;;6.93;5.90;;;;;;;;;;5014956;28;20046;-80
2022/07/31 06:09:04;;;;;;;6.45;4.85;;;;;;;;;;5061974;28;20108;-78
2022/07/31 06:11:35;;;;;;;6.18;4.68;;;;;;;;;;5043298;28;20114;-78
2022/07/31 06:14:00;;;;;;;6.78;4.78;;;;;;;;;;5061261;28;20029;-81
2022/07/31 06:16:33;;;;;;;6.63;4.60;;;;;;;;;;5061476;28;20024;-79
2022/07/31 06:19:25;;;;;;;6.55;4.45;;;;;;;;;;5043417;28;20040;-80
2022/07/31 06:21:53;;;;;;;6.00;4.53;;;;;;;;;;5040777;28;20039;-81
2022/07/31 06:25:11;;;;;;;8.18;4.13;;;;;;;;;;5059359;28;20124;-80
2022/07/31 06:27:37;;;;;;;4.47;3.30;;;;;;;;;;5042612;28;20044;-79
2022/07/31 06:30:05;;;;;;;4.20;3.20;;;;;;;;;;5058435;28;20025;-81
2022/07/31 06:32:36;;;;;;;5.22;3.33;;;;;;;;;;5056802;28;20031;-79
2022/07/31 06:35:05;;;;;;;6.05;3.10;;;;;;;;;;5057149;28;20029;-80
2022/07/31 06:38:01;;;;;;;6.40;3.45;;;;;;;;;;5062557;28;20394;-77
2022/07/31 06:43:23;;;;;;;4.13;3.10;;;;;;;;;;5200918;22;20048;-80
2022/07/31 06:53:11;;;;;;;5.22;3.45;;;;;;;;;;4966090;28;20039;-79
2022/07/31 06:56:23;;;;;;;7.65;3.17;;;;;;;;;;4982037;28;20030;-80
2022/07/31 06:58:51;;;;;;;3.90;3.10;;;;;;;;;;4924789;28;20050;-78
2022/07/31 07:02:15;;;;;;;5.38;3.10;;;;;;;;;;4983139;28;20110;-80
2022/07/31 07:05:26;;;;;;;3.97;2.88;;;;;;;;;;4983693;28;20034;-80
2022/07/31 07:08:55;;;;;;;6.43;2.65;;;;;;;;;;5042231;28;20053;-78
2022/07/31 07:11:51;;;;;;;2.90;2.50;;;;;;;;;;4981759;28;20030;-80
2022/07/31 07:14:27;;;;;;;3.53;2.72;;;;;;;;;;4948809;28;20066;-79
2022/07/31 07:23:38;;;;;;;3.97;2.58;;;;;;;;;;4980518;28;20093;-79
2022/07/31 07:29:26;;;;;;;4.43;2.60;;;;;;;;;;4980405;28;20035;-78
2022/07/31 07:39:26;;;;;;;9.98;3.10;;;;;;;;;;5060473;28;20063;-81
2022/07/31 07:42:11;;;;;;;4.90;2.83;;;;;;;;;;5056122;28;20086;-80
2022/07/31 07:44:39;;;;;;;5.43;2.75;;;;;;;;;;5063337;28;20066;-80
2022/07/31 07:47:12;;;;;;;4.18;3.05;;;;;;;;;;5080114;28;20382;-78
2022/07/31 07:49:37;;;;;;;6.80;3.40;;;;;;;;;;5062882;28;20402;-79
2022/07/31 07:52:18;;;;;;;4.13;2.95;;;;;;;;;;5080556;28;20031;-78
2022/07/31 07:54:45;;;;;;;5.57;3.22;;;;;;;;;;5066505;28;20043;-80
2022/07/31 08:01:19;;;;;;;8.68;3.20;;;;;;;;;;5027491;28;20401;-79
2022/07/31 08:03:47;;;;;;;5.78;3.00;;;;;;;;;;5062613;28;20027;-79
2022/07/31 08:06:12;;;;;;;5.43;3.08;;;;;;;;;;5082173;28;20102;-80
2022/07/31 08:08:38;;;;;;;4.82;3.47;;;;;;;;;;5085353;28;20017;-80
2022/07/31 08:11:03;;;;;;;6.78;3.30;;;;;;;;;;5084983;28;20031;-79
2022/07/31 08:13:29;;;;;;;5.18;3.15;;;;;;;;;;5081713;28;20067;-79
2022/07/31 08:15:54;;;;;;;4.85;3.08;;;;;;;;;;5082391;28;20028;-78
2022/07/31 08:18:19;;;;;;;4.72;3.33;;;;;;;;;;5079311;28;20533;-77
2022/07/31 08:20:47;;;;;;;4.25;2.90;;;;;;;;;;5079450;28;20028;-79
2022/07/31 08:23:12;;;;;;;5.47;3.00;;;;;;;;;;5079856;28;20051;-78
2022/07/31 08:25:38;;;;;;;4.90;3.10;;;;;;;;;;5078940;28;20048;-78
2022/07/31 08:28:03;;;;;;;6.97;2.97;;;;;;;;;;5078700;28;20296;-79
2022/07/31 08:30:28;;;;;;;5.63;3.08;;;;;;;;;;5079290;28;20060;-80
2022/07/31 08:32:54;;;;;;;6.03;3.13;;;;;;;;;;5078473;28;20024;-78
2022/07/31 08:35:19;;;;;;;4.53;2.90;;;;;;;;;;5079267;28;20075;-79
2022/07/31 08:37:44;;;;;;;5.88;2.42;;;;;;;;;;5079926;28;20253;-77
2022/07/31 08:40:10;;;;;;;4.75;3.50;;;;;;;;;;5062175;28;20074;-79
2022/07/31 08:42:36;;;;;;;5.82;3.13;;;;;;;;;;5081217;28;20024;-78
2022/07/31 08:45:05;;;;;;;5.15;3.10;;;;;;;;;;5081813;28;20044;-78
2022/07/31 08:47:32;;;;;;;6.80;3.05;;;;;;;;;;5079750;28;20052;-78
2022/07/31 08:49:58;;;;;;;5.10;3.08;;;;;;;;;;5081443;28;20032;-79
2022/07/31 08:52:24;;;;;;;4.57;3.00;;;;;;;;;;5082583;28;20051;-79
2022/07/31 08:54:51;;;;;;;3.28;2.97;;;;;;;;;;5081900;28;20016;-80
2022/07/31 08:57:17;;;;;;;6.32;3.08;;;;;;;;;;5065420;28;20042;-79
2022/07/31 08:59:42;;;;;;;5.45;3.47;;;;;;;;;;5080485;28;20070;-77
2022/07/31 09:02:09;;;;;;;4.13;2.80;;;;;;;;;;5081218;28;20536;-77
2022/07/31 09:04:35;;;;;;;7.60;3.25;;;;;;;;;;5080038;28;20092;-78
2022/07/31 09:07:00;;;;;;;6.70;2.63;;;;;;;;;;5079746;28;20052;-78
2022/07/31 09:09:29;;;;;;;4.32;3.10;;;;;;;;;;5078717;28;20050;-79
2022/07/31 09:11:55;;;;;;;4.40;2.85;;;;;;;;;;5061617;28;20044;-78
2022/07/31 09:14:29;;;;;;;5.78;2.70;;;;;;;;;;5079612;28;20020;-79
2022/07/31 09:16:55;;;;;;;4.65;2.85;;;;;;;;;;5082107;28;20016;-78
2022/07/31 09:19:22;;;;;;;4.13;2.70;;;;;;;;;;5080233;28;20040;-80
2022/07/31 09:21:47;;;;;;;3.33;3.03;;;;;;;;;;5079567;28;20482;-80
2022/07/31 09:24:27;;;;;;;6.80;2.80;;;;;;;;;;5078228;28;20039;-78
2022/07/31 09:27:04;;;;;;;5.43;3.00;;;;;;;;;;5078691;28;20064;-79
2022/07/31 09:29:41;;;;;;;4.10;2.67;;;;;;;;;;5060623;28;20039;-78
2022/07/31 09:32:17;;;;;;;5.53;2.80;;;;;;;;;;5079248;28;20043;-79
2022/07/31 09:34:44;;;;;;;11.30;2.67;;;;;;;;;;5078194;28;20032;-79
2022/07/31 09:37:11;;;;;;;8.35;3.28;;;;;;;;;;5076941;28;20035;-80
2022/07/31 09:39:36;;;;;;;4.13;2.63;;;;;;;;;;5059191;28;20028;-79
2022/07/31 09:42:05;;;;;;;4.40;3.00;;;;;;;;;;5076346;28;20124;-79
2022/07/31 09:44:42;;;;;;;6.38;3.10;;;;;;;;;;5078641;28;20039;-80
2022/07/31 09:47:32;;;;;;;4.57;3.05;;;;;;;;;;5079759;28;20500;-84
2022/07/31 09:50:15;;;;;;;7.13;2.63;;;;;;;;;;5056613;28;20032;-86
2022/07/31 09:53:13;;;;;;;5.30;2.85;;;;;;;;;;5066243;28;20115;-86
2022/07/31 09:59:10;;;;;;;6.28;3.13;;;;;;;;;;5079444;28;20062;-79
2022/07/31 10:01:36;;;;;;;8.95;3.10;;;;;;;;;;5078930;28;20020;-79
2022/07/31 10:04:04;;;;;;;4.30;2.90;;;;;;;;;;5060317;28;20081;-81
2022/07/31 10:06:33;;;;;;;5.43;2.80;;;;;;;;;;5078601;28;20020;-79
2022/07/31 10:09:01;;;;;;;5.07;2.80;;;;;;;;;;5077616;28;20475;-79
2022/07/31 10:11:29;;;;;;;4.30;2.75;;;;;;;;;;5083933;28;20454;-79
2022/07/31 10:13:58;;;;;;;5.05;2.50;;;;;;;;;;5086549;28;20020;-80
2022/07/31 10:16:26;;;;;;;4.03;2.78;;;;;;;;;;5086091;28;20024;-81
2022/07/31 10:18:56;;;;;;;7.85;2.92;;;;;;;;;;5086651;28;20025;-79
2022/07/31 10:21:26;;;;;;;3.75;2.78;;;;;;;;;;5084866;28;20045;-78
2022/07/31 10:23:53;;;;;;;3.58;2.60;;;;;;;;;;5085057;28;20032;-78
2022/07/31 10:26:21;;;;;;;4.78;3.08;;;;;;;;;;5084192;28;20025;-78
2022/07/31 10:28:48;;;;;;;11.02;2.70;;;;;;;;;;5067030;28;20111;-78
2022/07/31 10:31:14;;;;;;;5.38;2.85;;;;;;;;;;5067467;28;20041;-79
2022/07/31 10:33:41;;;;;;;4.82;2.80;;;;;;;;;;5068428;28;20119;-80
2022/07/31 10:36:21;;;;;;;4.68;2.20;;;;;;;;;;5084224;28;20393;-80
2022/07/31 10:38:54;;;;;;;3.30;2.80;;;;;;;;;;5085519;28;20028;-79
2022/07/31 10:41:35;;;;;;;4.90;2.80;;;;;;;;;;5084836;28;20024;-80
2022/07/31 10:44:15;;;;;;;6.57;2.50;;;;;;;;;;5085066;28;20028;-79
2022/07/31 10:46:40;;;;;;;4.60;2.65;;;;;;;;;;5085962;28;20063;-81
2022/07/31 10:49:06;;;;;;;4.35;2.90;;;;;;;;;;5085615;28;20029;-79
2022/07/31 10:51:31;;;;;;;8.52;2.80;;;;;;;;;;5085306;28;20519;-79
2022/07/31 10:54:04;;;;;;;3.88;2.50;;;;;;;;;;5085181;28;20482;-79
2022/07/31 10:56:41;;;;;;;4.47;2.55;;;;;;;;;;5086099;28;20193;-79
2022/07/31 10:59:06;;;;;;;5.45;2.58;;;;;;;;;;5085801;28;20020;-79
2022/07/31 11:01:31;;;;;;;3.45;2.85;;;;;;;;;;5085177;28;20027;-80
2022/07/31 11:04:01;;;;;;;4.67;2.90;;;;;;;;;;5085450;28;20073;-78
2022/07/31 11:06:40;;;;;;;5.10;3.00;;;;;;;;;;5084821;28;20256;-79
2022/07/31 11:09:05;;;;;;;8.45;2.78;;;;;;;;;;5069341;28;20051;-79
2022/07/31 11:11:33;;;;;;;4.93;2.67;;;;;;;;;;5087016;28;20028;-78
2022/07/31 11:13:59;;;;;;;3.70;2.80;;;;;;;;;;5070954;28;20498;-79
2022/07/31 11:16:25;;;;;;;5.07;2.63;;;;;;;;;;5085766;28;20060;-79
2022/07/31 11:19:05;;;;;;;6.00;3.10;;;;;;;;;;5085909;28;20023;-78
2022/07/31 11:21:32;;;;;;;6.60;3.10;;;;;;;;;;5067246;28;20039;-79
2022/07/31 11:23:58;;;;;;;3.67;2.60;;;;;;;;;;5083045;28;20016;-79
2022/07/31 11:26:26;;;;;;;6.30;3.08;;;;;;;;;;5083346;28;20545;-78
2022/07/31 11:28:51;;;;;;;5.30;3.08;;;;;;;;;;5083346;28;20048;-78
2022/07/31 11:31:16;;;;;;;4.87;2.73;;;;;;;;;;5083611;28;20040;-79
2022/07/31 11:33:44;;;;;;;4.77;2.70;;;;;;;;;;5085135;28;20269;-79
2022/07/31 11:36:13;;;;;;;6.60;2.97;;;;;;;;;;5082525;28;20803;-78
2022/07/31 11:38:41;;;;;;;4.85;2.67;;;;;;;;;;5065284;28;20020;-80
2022/07/31 11:41:07;;;;;;;5.03;2.80;;;;;;;;;;5085575;28;20024;-80
2022/07/31 11:43:33;;;;;;;4.90;2.63;;;;;;;;;;5083562;28;20020;-78
2022/07/31 11:45:59;;;;;;;6.03;2.45;;;;;;;;;;5083263;28;20020;-78
2022/07/31 11:48:25;;;;;;;6.22;2.90;;;;;;;;;;5082672;28;20021;-78
2022/07/31 11:50:51;;;;;;;8.38;2.65;;;;;;;;;;5084173;28;20052;-79
2022/07/31 11:53:21;;;;;;;7.03;2.88;;;;;;;;;;5084825;28;20020;-79
2022/07/31 11:55:52;;;;;;;8.15;2.95;;;;;;;;;;5082685;28;20028;-78
2022/07/31 11:58:20;;;;;;;5.90;3.15;;;;;;;;;;5081707;28;20033;-77
2022/07/31 12:01:04;;;;;;;4.53;2.70;;;;;;;;;;5083414;28;20020;-79
2022/07/31 12:03:35;;;;;;;6.95;2.58;;;;;;;;;;5081904;28;20048;-79
2022/07/31 12:06:00;;;;;;;6.15;3.28;;;;;;;;;;5080967;28;20024;-78
2022/07/31 12:08:26;;;;;;;4.13;2.88;;;;;;;;;;5080831;28;20477;-78
2022/07/31 12:10:53;;;;;;;3.95;2.55;;;;;;;;;;5080773;28;20482;-78
2022/07/31 12:13:24;;;;;;;4.15;2.75;;;;;;;;;;5062427;28;20021;-78
2022/07/31 12:15:52;;;;;;;5.38;2.30;;;;;;;;;;5080684;28;20099;-79
2022/07/31 12:18:18;;;;;;;4.22;2.10;;;;;;;;;;5082376;28;20039;-78
2022/07/31 12:20:51;;;;;;;3.72;2.60;;;;;;;;;;5080678;28;20021;-79
2022/07/31 12:23:16;;;;;;;3.60;2.08;;;;;;;;;;5081175;28;20466;-78
2022/07/31 12:25:42;;;;;;;5.45;2.50;;;;;;;;;;5079527;28;20119;-79
2022/07/31 12:28:08;;;;;;;7.15;2.60;;;;;;;;;;5079932;28;20116;-78
2022/07/31 12:30:33;;;;;;;5.28;2.28;;;;;;;;;;5062760;28;20028;-77
2022/07/31 12:33:06;;;;;;;4.30;2.10;;;;;;;;;;5079856;28;20036;-78
2022/07/31 12:35:41;;;;;;;8.95;2.38;;;;;;;;;;5064548;28;20406;-78
2022/07/31 12:38:07;;;;;;;5.78;2.30;;;;;;;;;;5080243;28;20532;-77
2022/07/31 12:40:32;;;;;;;7.85;2.45;;;;;;;;;;5079166;28;20032;-77
2022/07/31 12:42:58;;;;;;;5.90;2.33;;;;;;;;;;5064007;28;20028;-77
2022/07/31 12:45:37;;;;;;;3.38;2.25;;;;;;;;;;5082045;28;20031;-79
2022/07/31 12:48:03;;;;;;;5.55;2.55;;;;;;;;;;5082573;28;20059;-78
2022/07/31 12:50:30;;;;;;;4.18;2.00;;;;;;;;;;5080805;28;20075;-79
2022/07/31 12:52:58;;;;;;;6.38;2.17;;;;;;;;;;5079819;28;20074;-77
2022/07/31 12:55:25;;;;;;;4.22;2.10;;;;;;;;;;5081268;28;20024;-79
2022/07/31 12:57:51;;;;;;;5.82;2.15;;;;;;;;;;5062435;28;20026;-78
2022/07/31 13:00:17;;;;;;;6.20;2.00;;;;;;;;;;5080657;28;20489;-78
2022/07/31 13:02:43;;;;;;;4.13;2.08;;;;;;;;;;5063282;28;20021;-79
2022/07/31 13:05:08;;;;;;;4.03;2.13;;;;;;;;;;5078838;28;20078;-78
2022/07/31 13:07:34;;;;;;;6.10;2.35;;;;;;;;;;5062095;28;20025;-77
2022/07/31 13:09:59;;;;;;;5.38;1.83;;;;;;;;;;5079245;28;20037;-79
2022/07/31 13:12:25;;;;;;;3.97;1.90;;;;;;;;;;5080721;28;20051;-79
2022/07/31 13:14:50;;;;;;;3.65;2.00;;;;;;;;;;5061330;28;20029;-77
2022/07/31 13:17:15;;;;;;;5.27;1.87;;;;;;;;;;5079879;28;20032;-77
2022/07/31 13:19:40;;;;;;;3.60;2.00;;;;;;;;;;5077645;28;20028;-79
2022/07/31 13:22:06;;;;;;;3.13;1.93;;;;;;;;;;5079287;28;20265;-78
2022/07/31 13:24:31;;;;;;;2.35;1.80;;;;;;;;;;5079337;28;20284;-79
2022/07/31 13:26:57;;;;;;;4.80;1.95;;;;;;;;;;5078160;28;20017;-79
2022/07/31 13:29:23;;;;;;;5.00;1.98;;;;;;;;;;5077780;28;20048;-82
2022/07/31 13:31:48;;;;;;;2.85;2.00;;;;;;;;;;5077455;28;20036;-77
2022/07/31 13:34:14;;;;;;;4.25;1.80;;;;;;;;;;5079336;28;20028;-82
2022/07/31 13:36:39;;;;;;;3.15;1.80;;;;;;;;;;5079750;28;20233;-78
2022/07/31 13:39:04;;;;;;;3.75;2.00;;;;;;;;;;5060216;28;20024;-77
2022/07/31 13:41:30;;;;;;;3.30;1.97;;;;;;;;;;5060328;28;20064;-77
2022/07/31 13:43:57;;;;;;;4.50;1.77;;;;;;;;;;5077105;28;20302;-76
2022/07/31 13:46:24;;;;;;;2.88;1.90;;;;;;;;;;5079598;28;20027;-78
2022/07/31 13:48:51;;;;;;;2.72;1.70;;;;;;;;;;5081703;28;20092;-78
2022/07/31 13:51:16;;;;;;;4.07;1.90;;;;;;;;;;5080234;28;20120;-78
2022/07/31 13:53:42;;;;;;;3.58;1.70;;;;;;;;;;5080395;28;20060;-78
2022/07/31 13:56:08;;;;;;;5.85;1.83;;;;;;;;;;5081418;28;20029;-76
2022/07/31 13:58:33;;;;;;;18.00;2.30;;;;;;;;;;5064820;28;20025;-78
2022/07/31 14:00:59;;;;;;;6.95;1.88;;;;;;;;;;5080909;28;20040;-77
2022/07/31 14:03:24;;;;;;;5.72;2.05;;;;;;;;;;5080054;28;20043;-78
2022/07/31 14:05:51;;;;;;;2.55;1.70;;;;;;;;;;5081046;28;20028;-77
2022/07/31 14:08:17;;;;;;;3.47;1.90;;;;;;;;;;5080655;28;20425;-78
2022/07/31 14:10:46;;;;;;;2.80;1.80;;;;;;;;;;5081328;28;20027;-77
2022/07/31 14:13:11;;;;;;;3.70;2.10;;;;;;;;;;5063050;28;20035;-78
2022/07/31 14:15:36;;;;;;;5.43;2.20;;;;;;;;;;5081281;28;20024;-80
2022/07/31 14:18:02;;;;;;;3.77;1.67;;;;;;;;;;5082027;28;20020;-78
2022/07/31 14:20:28;;;;;;;2.55;1.70;;;;;;;;;;5082766;28;20265;-77
2022/07/31 14:22:53;;;;;;;2.20;1.60;;;;;;;;;;5083084;28;20076;-78
2022/07/31 14:25:19;;;;;;;2.28;1.70;;;;;;;;;;5081787;28;20052;-79
2022/07/31 14:27:44;;;;;;;1.80;1.42;;;;;;;;;;5082527;28;20025;-77
2022/07/31 14:30:11;;;;;;;2.38;1.60;;;;;;;;;;5079573;28;20029;-79
2022/07/31 14:32:36;;;;;;;4.28;1.58;;;;;;;;;;5061691;28;20028;-77
2022/07/31 14:35:02;;;;;;;2.05;1.50;;;;;;;;;;5080161;28;20021;-78
2022/07/31 14:37:28;;;;;;;5.35;1.60;;;;;;;;;;5079837;28;20074;-78
2022/07/31 14:39:53;;;;;;;2.78;1.40;;;;;;;;;;5079996;28;20028;-77
2022/07/31 14:42:19;;;;;;;3.70;1.50;;;;;;;;;;5078887;28;20051;-78
2022/07/31 14:44:45;;;;;;;4.85;1.70;;;;;;;;;;5089380;28;20028;-77
2022/07/31 14:47:10;;;;;;;3.78;1.58;;;;;;;;;;5096950;28;20032;-76
2022/07/31 14:49:35;;;;;;;3.08;1.67;;;;;;;;;;5095771;28;20051;-76
2022/07/31 14:52:01;;;;;;;4.70;1.58;;;;;;;;;;5096781;28;20024;-77
2022/07/31 14:54:26;;;;;;;3.97;1.50;;;;;;;;;;5090126;28;20037;-77
2022/07/31 14:56:51;;;;;;;4.40;1.65;;;;;;;;;;5095293;28;20005;-78
2022/07/31 14:59:17;;;;;;;3.03;1.57;;;;;;;;;;5090371;28;20033;-76
2022/07/31 15:01:42;;;;;;;3.10;1.60;;;;;;;;;;5081838;28;20374;-77
2022/07/31 15:04:07;;;;;;;6.10;1.50;;;;;;;;;;5082251;28;20319;-78
2022/07/31 15:06:32;;;;;;;2.33;1.27;;;;;;;;;;5083596;28;20025;-77
2022/07/31 15:08:58;;;;;;;4.05;1.33;;;;;;;;;;5084980;28;20386;-78
2022/07/31 15:11:23;;;;;;;2.22;1.20;;;;;;;;;;5081812;28;20056;-77
2022/07/31 15:13:48;;;;;;;2.33;1.30;;;;;;;;;;5081634;28;20362;-77
2022/07/31 15:16:13;;;;;;;3.90;1.42;;;;;;;;;;5084256;28;20043;-77
2022/07/31 15:18:40;;;;;;;1.52;1.33;;;;;;;;;;5085999;28;20409;-77
2022/07/31 15:21:11;;;;;;;1.92;1.38;;;;;;;;;;5087342;28;20028;-78
2022/07/31 15:23:36;;;;;;;1.70;1.27;;;;;;;;;;5086692;28;20571;-79
2022/07/31 15:26:01;;;;;;;1.23;1.10;;;;;;;;;;5086196;28;20025;-79
2022/07/31 15:28:26;;;;;;;3.70;1.38;;;;;;;;;;5066437;28;20051;-78
2022/07/31 15:30:52;;;;;;;3.47;1.03;;;;;;;;;;5084609;28;20101;-77
2022/07/31 15:33:17;;;;;;;5.18;1.40;;;;;;;;;;5082384;28;20261;-77
2022/07/31 15:35:42;;;;;;;1.98;1.40;;;;;;;;;;5065587;28;20104;-78
2022/07/31 15:38:07;;;;;;;2.05;1.30;;;;;;;;;;5082626;28;20020;-77
2022/07/31 15:40:33;;;;;;;1.63;1.00;;;;;;;;;;5083540;28;20045;-78
2022/07/31 15:42:58;;;;;;;0.90;0.90;;;;;;;;;;5064893;28;20122;-78
2022/07/31 15:45:23;;;;;;;1.95;1.10;;;;;;;;;;5081600;28;20024;-77
2022/07/31 15:47:49;;;;;;;2.28;1.10;;;;;;;;;;5064362;28;20028;-79
2022/07/31 15:50:17;;;;;;;1.10;0.97;;;;;;;;;;5081502;28;20024;-78
2022/07/31 15:52:42;;;;;;;1.92;1.20;;;;;;;;;;5082671;28;20257;-78
2022/07/31 15:55:08;;;;;;;3.17;1.20;;;;;;;;;;5063578;28;20107;-78
2022/07/31 15:57:33;;;;;;;4.22;1.15;;;;;;;;;;5082671;28;20024;-77
2022/07/31 15:59:59;;;;;;;3.40;1.10;;;;;;;;;;5081714;28;20029;-77
2022/07/31 16:02:24;;;;;;;3.83;1.17;;;;;;;;;;5082488;28;20062;-78
2022/07/31 16:04:51;;;;;;;3.22;1.30;;;;;;;;;;5082913;28;20082;-77
2022/07/31 16:07:16;;;;;;;2.35;1.10;;;;;;;;;;5081372;28;20371;-79
2022/07/31 16:09:42;;;;;;;1.65;1.20;;;;;;;;;;5082240;28;20027;-78
2022/07/31 16:12:07;;;;;;;3.40;1.38;;;;;;;;;;5082776;28;20115;-76
2022/07/31 16:14:32;;;;;;;5.57;1.42;;;;;;;;;;5083621;28;20024;-77
2022/07/31 16:16:58;;;;;;;1.92;1.20;;;;;;;;;;5083582;28;20131;-79
2022/07/31 16:19:24;;;;;;;3.15;1.40;;;;;;;;;;5083751;28;20100;-80
2022/07/31 16:21:51;;;;;;;5.22;1.88;;;;;;;;;;5082132;28;20027;-79
2022/07/31 16:24:17;;;;;;;2.50;1.30;;;;;;;;;;5083036;28;20104;-78
2022/07/31 16:26:46;;;;;;;3.05;1.40;;;;;;;;;;5084096;28;20024;-78
2022/07/31 16:29:11;;;;;;;1.63;1.52;;;;;;;;;;5082679;28;20059;-78
2022/07/31 16:31:37;;;;;;;3.58;1.50;;;;;;;;;;5083309;28;20037;-78
2022/07/31 16:34:02;;;;;;;1.73;1.38;;;;;;;;;;5083535;28;20027;-78
2022/07/31 16:36:27;;;;;;;1.37;1.27;;;;;;;;;;5083844;28;20035;-79
2022/07/31 16:38:53;;;;;;;3.17;1.40;;;;;;;;;;5082759;28;20285;-78
2022/07/31 16:41:18;;;;;;;2.25;1.42;;;;;;;;;;5080965;28;20499;-78
2022/07/31 16:43:43;;;;;;;1.67;1.40;;;;;;;;;;5062387;28;20543;-79
2022/07/31 16:46:08;;;;;;;2.53;1.40;;;;;;;;;;5080450;28;20257;-77
2022/07/31 16:48:34;;;;;;;1.55;1.30;;;;;;;;;;5080773;28;20313;-77
2022/07/31 16:51:00;;;;;;;1.52;1.40;;;;;;;;;;5061290;28;20050;-77
2022/07/31 16:53:27;;;;;;;3.85;1.50;;;;;;;;;;5079308;28;20028;-80
2022/07/31 16:55:52;;;;;;;2.67;1.38;;;;;;;;;;5080575;28;20024;-78
2022/07/31 16:58:18;;;;;;;4.18;1.40;;;;;;;;;;5079473;28;20030;-77
2022/07/31 17:00:44;;;;;;;2.03;1.42;;;;;;;;;;5079466;28;20401;-77
2022/07/31 17:03:09;;;;;;;2.58;1.45;;;;;;;;;;5063106;28;20024;-77
2022/07/31 17:05:35;;;;;;;1.73;1.50;;;;;;;;;;5078590;28;20027;-75
2022/07/31 17:08:00;;;;;;;2.53;1.30;;;;;;;;;;5079910;28;20354;-77
2022/07/31 17:10:25;;;;;;;5.23;1.70;;;;;;;;;;5078908;28;20024;-79
2022/07/31 17:12:51;;;;;;;6.38;1.70;;;;;;;;;;5061193;28;20351;-78
2022/07/31 17:15:16;;;;;;;3.03;1.70;;;;;;;;;;5079209;28;20020;-77
2022/07/31 17:17:41;;;;;;;3.15;1.60;;;;;;;;;;5078327;28;20066;-79
2022/07/31 17:20:07;;;;;;;5.17;1.40;;;;;;;;;;5078836;28;20473;-77
2022/07/31 17:22:36;;;;;;;5.20;1.40;;;;;;;;;;5079531;28;20032;-78
2022/07/31 17:25:05;;;;;;;3.17;1.70;;;;;;;;;;5078380;28;20028;-77
2022/07/31 17:27:30;;;;;;;2.10;1.58;;;;;;;;;;5079371;28;20115;-78
2022/07/31 17:29:56;;;;;;;4.60;1.50;;;;;;;;;;5078810;28;20106;-78
2022/07/31 17:32:21;;;;;;;1.83;1.40;;;;;;;;;;5078744;28;20108;-76
2022/07/31 17:34:48;;;;;;;1.87;1.40;;;;;;;;;;5078075;28;20027;-78
2022/07/31 17:37:16;;;;;;;2.38;1.70;;;;;;;;;;5078688;28;20312;-79
2022/07/31 17:39:41;;;;;;;2.92;1.50;;;;;;;;;;5079234;28;20093;-78
2022/07/31 17:42:07;;;;;;;1.60;1.30;;;;;;;;;;5077861;28;20052;-77
2022/07/31 17:44:32;;;;;;;1.67;1.23;;;;;;;;;;5076648;28;20474;-79
2022/07/31 17:46:57;;;;;;;2.70;1.50;;;;;;;;;;5075492;28;20039;-78
2022/07/31 17:49:23;;;;;;;2.97;1.50;;;;;;;;;;5076230;28;20031;-78
2022/07/31 17:51:49;;;;;;;3.27;1.10;;;;;;;;;;5075754;28;20394;-79
2022/07/31 17:54:14;;;;;;;1.92;1.20;;;;;;;;;;5076983;28;20028;-78
2022/07/31 17:56:39;;;;;;;4.75;1.40;;;;;;;;;;5076226;28;20055;-78
2022/07/31 17:59:05;;;;;;;4.63;1.30;;;;;;;;;;5057902;28;20474;-79
2022/07/31 18:01:32;;;;;;;5.78;1.60;;;;;;;;;;5076704;28;20685;-78
2022/07/31 18:03:57;;;;;;;3.50;1.80;;;;;;;;;;5075508;28;20021;-78
2022/07/31 18:06:22;;;;;;;3.30;2.53;;;;;;;;;;5076511;28;20042;-79
2022/07/31 18:08:47;;;;;;;5.23;3.50;;;;;;;;;;5075280;28;20021;-79
2022/07/31 18:11:13;;;;;;;1.40;1.30;;;;;;;;;;5076265;28;20126;-81
2022/07/31 18:13:38;;;;;;;6.07;3.05;;;;;;;;;;5075911;28;20069;-80
2022/07/31 18:16:03;;;;;;;1.50;1.30;;;;;;;;;;5076137;28;20020;-78
2022/07/31 18:18:28;;;;;;;2.70;1.40;;;;;;;;;;5076113;28;20257;-77
2022/07/31 18:20:54;;;;;;;5.37;1.40;;;;;;;;;;5076243;28;20039;-78
2022/07/31 18:23:28;;;;;;;2.22;1.45;;;;;;;;;;5074502;28;20317;-78
2022/07/31 18:25:54;;;;;;;3.03;1.45;;;;;;;;;;5076356;28;20032;-78
2022/07/31 18:28:19;;;;;;;2.60;1.65;;;;;;;;;;5075725;28;20024;-78
2022/07/31 18:30:44;;;;;;;2.23;1.40;;;;;;;;;;5077800;28;20029;-78
2022/07/31 18:33:11;;;;;;;4.37;2.10;;;;;;;;;;5079917;28;20352;-79
2022/07/31 18:35:36;;;;;;;2.25;1.73;;;;;;;;;;5080351;28;20257;-79
2022/07/31 18:38:02;;;;;;;6.18;1.52;;;;;;;;;;5079827;28;20023;-77
2022/07/31 18:40:27;;;;;;;2.90;1.40;;;;;;;;;;5079036;28;20016;-78
2022/07/31 18:42:52;;;;;;;3.10;1.38;;;;;;;;;;5080051;28;20039;-79
2022/07/31 18:45:18;;;;;;;5.40;1.67;;;;;;;;;;5079620;28;20035;-78
2022/07/31 18:47:43;;;;;;;2.13;1.50;;;;;;;;;;5079003;28;20299;-78
2022/07/31 18:50:09;;;;;;;3.07;1.30;;;;;;;;;;5079786;28;20269;-79
2022/07/31 18:52:34;;;;;;;4.18;1.40;;;;;;;;;;5079964;28;20030;-80
2022/07/31 18:54:59;;;;;;;3.87;1.53;;;;;;;;;;5079716;28;20549;-80
2022/07/31 18:57:24;;;;;;;2.50;1.50;;;;;;;;;;5080018;28;20285;-78
2022/07/31 18:59:50;;;;;;;2.57;1.30;;;;;;;;;;5080532;28;20395;-78